Time;durP1;ratioP1;P1;durP2;ratioP2;P2;SDS_P1;SDS_P2;PMS_P1;PMS_P2;Temp;Humidity;BMP_temperature;BMP_pressure;BME280_temperature;BME280_humidity;BME280_pressure;Samples;Min_cycle;Max_cycle;Signal;HPM_P1;HPM_P2
2023/12/13 00:01:41;;;;;;;4.53;1.92;;;10.10;99.90;;;;;;5115291;28;20036;-70
2023/12/13 00:04:07;;;;;;;5.93;2.33;;;10.00;99.90;;;;;;5116164;28;20036;-71
2023/12/13 00:06:34;;;;;;;5.00;2.38;;;10.00;99.90;;;;;;5116065;28;20026;-70
2023/12/13 00:09:01;;;;;;;3.92;1.83;;;10.00;99.90;;;;;;5116037;28;20020;-71
2023/12/13 00:11:27;;;;;;;5.40;1.90;;;10.00;99.90;;;;;;5116036;28;20498;-70
2023/12/13 00:13:52;;;;;;;2.22;1.40;;;10.00;99.90;;;;;;5115792;28;20048;-70
2023/12/13 00:16:20;;;;;;;3.35;1.77;;;9.90;99.90;;;;;;5115944;28;20056;-70
2023/12/13 00:18:47;;;;;;;4.32;1.73;;;9.90;99.90;;;;;;5116026;28;20012;-71
2023/12/13 00:21:17;;;;;;;4.53;1.30;;;9.90;99.90;;;;;;5115791;28;20024;-71
2023/12/13 00:23:42;;;;;;;2.88;1.52;;;9.80;99.90;;;;;;5115955;28;20024;-70
2023/12/13 00:26:16;;;;;;;3.55;1.42;;;9.80;99.90;;;;;;5115782;28;20051;-70
2023/12/13 00:28:41;;;;;;;2.20;1.35;;;9.80;99.90;;;;;;5115783;28;20046;-70
2023/12/13 00:31:08;;;;;;;3.78;1.20;;;9.70;99.90;;;;;;5115533;28;20083;-70
2023/12/13 00:33:34;;;;;;;5.95;1.80;;;9.70;99.90;;;;;;5115544;28;20020;-68
2023/12/13 00:35:59;;;;;;;3.95;1.60;;;9.60;99.90;;;;;;5115489;28;20048;-71
2023/12/13 00:38:25;;;;;;;4.60;1.52;;;9.70;99.90;;;;;;5114526;28;20081;-70
2023/12/13 00:40:51;;;;;;;2.90;1.38;;;9.70;99.90;;;;;;5115269;28;20062;-70
2023/12/13 00:43:17;;;;;;;4.00;1.60;;;9.60;99.90;;;;;;5115512;28;20036;-70
2023/12/13 00:45:43;;;;;;;4.07;1.42;;;9.70;99.90;;;;;;5115456;28;20054;-70
2023/12/13 00:48:08;;;;;;;8.18;1.83;;;9.60;99.90;;;;;;5115385;28;20016;-70
2023/12/13 00:50:34;;;;;;;8.13;1.70;;;9.60;99.90;;;;;;5115302;28;20032;-70
2023/12/13 00:53:00;;;;;;;5.45;1.40;;;9.60;99.90;;;;;;5115231;28;20058;-71
2023/12/13 00:55:26;;;;;;;4.00;1.35;;;9.60;99.90;;;;;;5115093;28;20033;-70
2023/12/13 00:57:52;;;;;;;3.72;1.73;;;9.60;99.90;;;;;;5115222;28;20024;-70
2023/12/13 01:00:18;;;;;;;6.05;1.80;;;9.50;99.90;;;;;;5114560;28;20016;-70
2023/12/13 01:02:43;;;;;;;6.60;1.60;;;9.50;99.90;;;;;;5115062;28;20050;-70
2023/12/13 01:05:09;;;;;;;3.75;1.40;;;9.40;99.90;;;;;;5114947;28;20470;-70
2023/12/13 01:07:35;;;;;;;5.82;1.63;;;9.40;99.90;;;;;;5115022;28;20020;-70
2023/12/13 01:10:00;;;;;;;7.50;1.67;;;9.40;99.90;;;;;;5114863;28;20493;-70
2023/12/13 01:12:26;;;;;;;5.35;1.85;;;9.40;99.90;;;;;;5113940;28;20043;-70
2023/12/13 01:14:52;;;;;;;5.07;1.45;;;9.40;99.90;;;;;;5113793;28;20035;-70
2023/12/13 01:17:18;;;;;;;5.00;1.80;;;9.40;99.90;;;;;;5114827;28;20024;-70
2023/12/13 01:19:43;;;;;;;3.70;1.67;;;9.40;99.90;;;;;;5096735;28;20024;-70
2023/12/13 01:22:09;;;;;;;3.35;1.52;;;9.40;99.90;;;;;;5113770;28;20024;-70
2023/12/13 01:24:34;;;;;;;4.65;1.67;;;9.40;99.90;;;;;;5114718;28;20032;-70
2023/12/13 01:27:00;;;;;;;4.10;1.48;;;9.40;99.90;;;;;;5114839;28;20035;-69
2023/12/13 01:29:26;;;;;;;6.13;2.05;;;9.50;99.90;;;;;;5114403;28;20039;-70
2023/12/13 01:31:51;;;;;;;6.78;1.50;;;9.50;99.90;;;;;;5114496;28;20098;-70
2023/12/13 01:34:17;;;;;;;4.43;1.63;;;9.50;99.90;;;;;;5113248;28;20081;-71
2023/12/13 01:36:42;;;;;;;2.38;1.23;;;9.50;99.90;;;;;;5114420;28;20054;-71
2023/12/13 01:39:08;;;;;;;7.25;1.83;;;9.50;99.90;;;;;;5114254;28;20028;-70
2023/12/13 01:41:36;;;;;;;4.53;1.65;;;9.60;99.90;;;;;;5114150;28;20040;-71
2023/12/13 01:44:01;;;;;;;5.72;1.30;;;9.60;99.90;;;;;;5114354;28;20028;-69
2023/12/13 01:46:30;;;;;;;3.67;1.48;;;9.60;99.90;;;;;;5114229;28;20084;-70
2023/12/13 01:48:56;;;;;;;3.80;1.33;;;9.60;99.90;;;;;;5114241;28;20024;-70
2023/12/13 01:51:22;;;;;;;6.20;1.45;;;9.60;99.90;;;;;;5114159;28;20042;-70
2023/12/13 01:53:48;;;;;;;6.57;1.63;;;9.60;99.90;;;;;;5113955;28;20067;-70
2023/12/13 01:56:14;;;;;;;4.43;1.45;;;9.60;99.90;;;;;;5114046;28;20028;-70
2023/12/13 01:58:40;;;;;;;2.78;1.27;;;9.60;99.90;;;;;;5114048;28;20040;-71
2023/12/13 02:01:07;;;;;;;3.28;1.60;;;9.60;99.90;;;;;;5113778;28;20027;-70
2023/12/13 02:03:35;;;;;;;1.90;1.35;;;9.60;99.90;;;;;;5113977;28;20027;-70
2023/12/13 02:06:01;;;;;;;7.47;1.35;;;9.60;99.90;;;;;;5113834;28;20032;-71
2023/12/13 02:08:27;;;;;;;2.63;1.08;;;9.60;99.90;;;;;;5113745;28;20069;-70
2023/12/13 02:10:53;;;;;;;5.03;1.50;;;9.60;99.90;;;;;;5113670;28;20024;-70
2023/12/13 02:13:19;;;;;;;2.60;1.40;;;9.60;99.90;;;;;;5111949;28;20063;-71
2023/12/13 02:15:45;;;;;;;3.42;1.58;;;9.70;99.90;;;;;;5113797;28;20035;-70
2023/12/13 02:18:11;;;;;;;6.45;1.70;;;9.60;99.90;;;;;;5113688;28;20016;-70
2023/12/13 02:20:37;;;;;;;3.88;1.60;;;9.60;99.90;;;;;;5113538;28;20028;-70
2023/12/13 02:23:02;;;;;;;2.75;1.40;;;9.70;99.90;;;;;;5113619;28;20050;-70
2023/12/13 02:25:48;;;;;;;8.00;1.67;;;9.70;99.90;;;;;;5113440;28;20055;-70
2023/12/13 02:28:14;;;;;;;3.13;1.70;;;9.70;99.90;;;;;;5099408;28;20102;-70
2023/12/13 02:30:41;;;;;;;3.05;1.90;;;9.70;99.90;;;;;;5113186;28;20024;-70
2023/12/13 02:33:08;;;;;;;5.18;1.85;;;9.70;99.90;;;;;;5112288;28;20030;-70
2023/12/13 02:35:34;;;;;;;6.72;2.00;;;9.70;99.90;;;;;;5112107;28;20044;-70
2023/12/13 02:38:00;;;;;;;6.00;2.00;;;9.70;99.90;;;;;;5113264;28;20079;-70
2023/12/13 02:40:25;;;;;;;8.18;1.90;;;9.70;99.90;;;;;;5112997;28;20021;-71
2023/12/13 02:42:51;;;;;;;4.03;2.10;;;9.70;99.90;;;;;;5112224;28;20482;-70
2023/12/13 02:45:17;;;;;;;3.33;1.77;;;9.70;99.90;;;;;;5113175;28;20039;-70
2023/12/13 02:47:43;;;;;;;3.47;1.73;;;9.80;99.90;;;;;;5113097;28;20111;-71
2023/12/13 02:50:13;;;;;;;4.00;2.30;;;9.80;99.90;;;;;;5113042;28;20031;-70
2023/12/13 02:52:40;;;;;;;8.38;2.25;;;9.80;99.90;;;;;;5112925;28;20052;-71
2023/12/13 02:55:07;;;;;;;5.35;1.70;;;9.80;99.90;;;;;;5113021;28;20028;-71
2023/12/13 02:57:32;;;;;;;7.05;2.40;;;9.80;99.90;;;;;;5112951;28;20020;-70
2023/12/13 02:59:58;;;;;;;4.68;2.20;;;9.80;99.90;;;;;;5112724;28;20058;-70
2023/12/13 03:02:25;;;;;;;6.40;2.47;;;9.80;99.90;;;;;;5112820;28;20051;-71
2023/12/13 03:04:51;;;;;;;7.07;2.53;;;9.80;99.90;;;;;;5112670;28;20024;-70
2023/12/13 03:07:17;;;;;;;6.80;2.70;;;9.80;99.90;;;;;;5112752;28;20031;-70
2023/12/13 03:09:43;;;;;;;6.50;2.30;;;9.70;99.90;;;;;;5112732;28;20087;-70
2023/12/13 03:12:08;;;;;;;8.95;3.03;;;9.70;99.90;;;;;;5112699;28;20050;-70
2023/12/13 03:14:34;;;;;;;7.13;2.80;;;9.70;99.90;;;;;;5112715;28;20031;-71
2023/12/13 03:17:00;;;;;;;6.80;2.45;;;9.70;99.90;;;;;;5112661;28;20077;-70
2023/12/13 03:19:25;;;;;;;6.28;2.50;;;9.70;99.90;;;;;;5111596;28;20020;-70
2023/12/13 03:21:51;;;;;;;3.88;2.05;;;9.70;99.90;;;;;;5111629;28;20039;-70
2023/12/13 03:24:16;;;;;;;7.03;2.50;;;9.70;99.90;;;;;;5112408;28;20151;-71
2023/12/13 03:26:42;;;;;;;6.03;2.55;;;9.70;99.90;;;;;;5112610;28;20039;-70
2023/12/13 03:29:07;;;;;;;17.42;3.58;;;9.70;99.90;;;;;;5112637;28;20032;-70
2023/12/13 03:31:33;;;;;;;6.60;2.78;;;9.70;99.90;;;;;;5112445;28;20031;-70
2023/12/13 03:34:00;;;;;;;8.48;3.25;;;9.70;99.90;;;;;;5112427;28;20028;-70
2023/12/13 03:36:27;;;;;;;9.52;2.92;;;9.60;99.90;;;;;;5112306;28;20027;-69
2023/12/13 03:38:53;;;;;;;12.60;3.00;;;9.60;99.90;;;;;;5112526;28;20025;-70
2023/12/13 03:41:18;;;;;;;6.03;2.78;;;9.60;99.90;;;;;;5112292;28;20056;-70
2023/12/13 03:43:44;;;;;;;8.80;3.35;;;9.70;99.90;;;;;;5112382;28;20039;-70
2023/12/13 03:46:10;;;;;;;7.55;2.80;;;9.60;99.90;;;;;;5112337;28;20035;-70
2023/12/13 03:48:35;;;;;;;7.38;2.60;;;9.60;99.90;;;;;;5111389;28;20085;-70
2023/12/13 03:51:01;;;;;;;10.15;3.00;;;9.60;99.90;;;;;;5112273;28;20020;-71
2023/12/13 03:53:28;;;;;;;4.88;2.63;;;9.60;99.90;;;;;;5112264;28;20022;-70
2023/12/13 03:55:53;;;;;;;6.55;2.67;;;9.70;99.90;;;;;;5112319;28;20028;-70
2023/12/13 03:58:19;;;;;;;4.90;2.63;;;9.70;99.90;;;;;;5111090;28;20467;-71
2023/12/13 04:00:45;;;;;;;6.20;2.53;;;9.70;99.90;;;;;;5112007;28;20031;-71
2023/12/13 04:03:10;;;;;;;6.53;2.38;;;9.70;99.90;;;;;;5112310;28;20028;-71
2023/12/13 04:05:36;;;;;;;8.35;2.85;;;9.70;99.90;;;;;;5112132;28;20036;-71
2023/12/13 04:08:01;;;;;;;7.18;2.80;;;9.70;99.90;;;;;;5112217;28;20050;-71
2023/12/13 04:10:27;;;;;;;7.70;2.55;;;9.70;99.90;;;;;;5112201;28;20020;-70
2023/12/13 04:12:53;;;;;;;6.72;2.80;;;9.70;99.90;;;;;;5112158;28;20482;-71
2023/12/13 04:15:18;;;;;;;7.85;3.00;;;9.70;99.90;;;;;;5111964;28;20035;-70
2023/12/13 04:17:44;;;;;;;8.93;2.33;;;9.80;99.90;;;;;;5112111;28;20039;-71
2023/12/13 04:20:10;;;;;;;8.43;2.65;;;9.80;99.90;;;;;;5112014;28;20046;-71
2023/12/13 04:22:36;;;;;;;8.10;2.88;;;9.80;99.90;;;;;;5112029;28;20054;-70
2023/12/13 04:25:01;;;;;;;12.48;2.67;;;9.80;99.90;;;;;;5112053;28;20039;-70
2023/12/13 04:27:27;;;;;;;6.22;2.30;;;9.80;99.90;;;;;;5112091;28;20048;-70
2023/12/13 04:29:53;;;;;;;5.30;2.17;;;9.80;99.90;;;;;;5111784;28;20020;-70
2023/12/13 04:32:19;;;;;;;11.82;2.50;;;9.80;99.90;;;;;;5111845;28;20024;-70
2023/12/13 04:34:44;;;;;;;10.32;2.20;;;9.80;99.90;;;;;;5112231;28;20032;-70
2023/12/13 04:37:10;;;;;;;11.50;2.47;;;9.80;99.90;;;;;;5115553;28;20028;-70
2023/12/13 04:39:36;;;;;;;7.32;2.53;;;9.80;99.90;;;;;;5114300;28;20028;-71
2023/12/13 04:42:03;;;;;;;10.23;2.25;;;9.80;99.90;;;;;;5115341;28;20067;-70
2023/12/13 04:44:30;;;;;;;6.13;2.33;;;9.70;99.90;;;;;;5115366;28;20111;-71
2023/12/13 04:46:59;;;;;;;7.38;2.28;;;9.80;99.90;;;;;;5115508;28;20091;-70
2023/12/13 04:49:25;;;;;;;7.60;2.55;;;9.80;99.90;;;;;;5114443;28;20470;-70
2023/12/13 04:51:51;;;;;;;8.02;2.33;;;9.80;99.90;;;;;;5115495;28;20032;-70
2023/12/13 04:54:16;;;;;;;12.20;2.22;;;9.80;99.90;;;;;;5114142;28;20024;-70
2023/12/13 04:56:43;;;;;;;10.50;2.40;;;9.80;99.90;;;;;;5115348;28;20111;-71
2023/12/13 04:59:08;;;;;;;8.73;2.25;;;9.80;99.90;;;;;;5114174;28;20022;-70
2023/12/13 05:01:34;;;;;;;14.93;3.20;;;9.80;99.90;;;;;;5114039;28;20060;-70
2023/12/13 05:03:59;;;;;;;11.90;2.50;;;9.90;99.90;;;;;;5115128;28;20020;-70
2023/12/13 05:06:25;;;;;;;9.98;2.60;;;9.90;99.90;;;;;;5114968;28;20063;-70
2023/12/13 05:08:51;;;;;;;11.52;1.95;;;9.90;99.90;;;;;;5115026;28;20036;-71
2023/12/13 05:11:16;;;;;;;6.80;2.28;;;9.90;99.90;;;;;;5114006;28;20057;-70
2023/12/13 05:13:42;;;;;;;8.73;2.15;;;9.90;99.90;;;;;;5114748;28;20028;-70
2023/12/13 05:16:08;;;;;;;10.13;2.33;;;9.90;99.90;;;;;;5113909;28;20028;-70
2023/12/13 05:18:34;;;;;;;8.65;1.90;;;9.90;99.90;;;;;;5114769;28;20034;-70
2023/12/13 05:21:01;;;;;;;7.10;2.00;;;9.90;99.90;;;;;;5113728;28;20017;-70
2023/12/13 05:23:27;;;;;;;8.07;2.30;;;10.00;99.90;;;;;;5114742;28;20027;-70
2023/12/13 05:25:53;;;;;;;5.60;2.05;;;9.90;99.90;;;;;;5113657;28;20063;-71
2023/12/13 05:28:19;;;;;;;8.68;2.08;;;10.00;99.90;;;;;;5114582;28;20050;-70
2023/12/13 05:30:44;;;;;;;7.47;1.67;;;10.00;99.90;;;;;;5114355;28;20024;-71
2023/12/13 05:33:10;;;;;;;6.90;2.45;;;10.00;99.90;;;;;;5114415;28;20161;-70
2023/12/13 05:35:36;;;;;;;9.07;2.33;;;10.00;99.90;;;;;;5114315;28;20083;-70
2023/12/13 05:38:01;;;;;;;9.80;2.17;;;9.90;99.90;;;;;;5114457;28;20024;-70
2023/12/13 05:40:27;;;;;;;7.15;1.98;;;10.00;99.90;;;;;;5114269;28;20085;-70
2023/12/13 05:42:54;;;;;;;13.13;2.35;;;9.90;99.90;;;;;;5113966;28;20089;-70
2023/12/13 05:45:20;;;;;;;11.18;2.28;;;10.00;99.90;;;;;;5114317;28;20043;-70
2023/12/13 05:47:45;;;;;;;7.32;1.85;;;9.90;99.90;;;;;;5112300;28;20024;-70
2023/12/13 05:50:11;;;;;;;11.20;2.42;;;9.90;99.90;;;;;;5113771;28;20047;-71
2023/12/13 05:52:38;;;;;;;6.80;1.90;;;9.90;99.90;;;;;;5113790;28;20028;-70
2023/12/13 05:55:05;;;;;;;11.77;2.30;;;9.90;99.90;;;;;;5113989;28;20024;-70
2023/12/13 05:57:31;;;;;;;7.65;2.20;;;9.90;99.90;;;;;;5113867;28;20024;-69
2023/12/13 05:59:57;;;;;;;7.68;2.42;;;9.90;99.90;;;;;;5113734;28;20014;-70
2023/12/13 06:02:22;;;;;;;10.15;2.45;;;10.00;99.90;;;;;;5113057;28;20489;-71
2023/12/13 06:04:48;;;;;;;15.73;2.67;;;9.90;99.90;;;;;;5095917;28;20017;-70
2023/12/13 06:07:14;;;;;;;12.20;2.30;;;9.90;99.90;;;;;;5112943;28;20510;-70
2023/12/13 06:09:42;;;;;;;9.50;2.28;;;10.00;99.90;;;;;;5113870;28;20088;-70
2023/12/13 06:12:08;;;;;;;11.15;2.50;;;10.00;99.90;;;;;;5113736;28;20050;-70
2023/12/13 06:14:34;;;;;;;12.63;2.65;;;10.00;99.90;;;;;;5113683;28;20036;-70
2023/12/13 06:16:59;;;;;;;9.73;2.40;;;10.00;99.90;;;;;;5113654;28;20039;-69
2023/12/13 06:19:29;;;;;;;11.77;2.60;;;10.00;99.90;;;;;;5112624;28;20034;-70
2023/12/13 06:21:58;;;;;;;5.63;1.90;;;10.00;99.90;;;;;;5113583;28;20024;-71
2023/12/13 06:24:24;;;;;;;9.38;2.92;;;10.00;99.90;;;;;;5113550;28;20020;-71
2023/12/13 06:26:49;;;;;;;9.50;2.35;;;10.00;99.90;;;;;;5113513;28;20039;-70
2023/12/13 06:29:15;;;;;;;5.30;1.88;;;10.10;99.90;;;;;;5113290;28;20096;-71
2023/12/13 06:31:41;;;;;;;8.25;2.30;;;10.10;99.90;;;;;;5113515;28;20030;-71
2023/12/13 06:34:07;;;;;;;12.48;2.47;;;10.10;99.90;;;;;;5113321;28;20109;-71
2023/12/13 06:36:32;;;;;;;10.63;2.17;;;10.10;99.90;;;;;;5113323;28;20028;-70
2023/12/13 06:38:58;;;;;;;12.20;2.58;;;10.10;99.90;;;;;;5113310;28;20036;-70
2023/12/13 06:41:23;;;;;;;10.02;2.75;;;10.10;99.90;;;;;;5113026;28;20082;-70
2023/12/13 06:43:49;;;;;;;11.27;3.08;;;10.10;99.90;;;;;;5112504;28;20115;-71
2023/12/13 06:46:15;;;;;;;9.35;2.85;;;10.10;99.90;;;;;;5112830;28;20024;-70
2023/12/13 06:48:41;;;;;;;10.05;3.03;;;10.00;99.90;;;;;;5110281;28;20043;-70
2023/12/13 06:51:07;;;;;;;10.95;2.20;;;10.10;99.90;;;;;;5113009;28;20035;-70
2023/12/13 06:53:37;;;;;;;8.30;2.28;;;10.00;99.90;;;;;;5112457;28;20045;-70
2023/12/13 06:56:03;;;;;;;8.43;2.47;;;10.10;99.90;;;;;;5112281;28;20075;-70
2023/12/13 06:58:28;;;;;;;9.23;2.50;;;10.10;99.90;;;;;;5110264;28;20013;-71
2023/12/13 07:00:54;;;;;;;11.90;2.83;;;10.10;99.90;;;;;;5110813;28;20031;-70
2023/12/13 07:03:20;;;;;;;8.30;2.40;;;10.10;99.90;;;;;;5110772;28;20032;-71
2023/12/13 07:05:46;;;;;;;13.13;2.70;;;10.00;99.90;;;;;;5111053;28;20028;-70
2023/12/13 07:08:12;;;;;;;8.18;2.20;;;10.00;99.90;;;;;;5111238;28;20486;-71
2023/12/13 07:10:38;;;;;;;8.77;2.20;;;10.00;99.90;;;;;;5111190;28;20050;-71
2023/12/13 07:13:04;;;;;;;10.30;2.38;;;10.00;99.90;;;;;;5111967;28;20510;-72
2023/12/13 07:15:30;;;;;;;6.80;2.63;;;10.00;99.90;;;;;;5092270;28;20024;-70
2023/12/13 07:17:55;;;;;;;8.88;2.75;;;10.00;99.90;;;;;;5092562;28;20037;-70
2023/12/13 07:20:21;;;;;;;11.05;2.78;;;10.00;99.90;;;;;;5092369;28;20056;-70
2023/12/13 07:22:49;;;;;;;8.25;2.65;;;10.00;99.90;;;;;;5092340;28;20090;-70
2023/12/13 07:25:15;;;;;;;8.75;3.20;;;10.00;99.90;;;;;;5092327;28;20097;-70
2023/12/13 07:27:40;;;;;;;13.98;3.03;;;10.00;99.90;;;;;;5092398;28;20025;-70
2023/12/13 07:30:07;;;;;;;12.60;2.75;;;10.00;99.90;;;;;;5092135;28;20272;-70
2023/12/13 07:32:33;;;;;;;8.07;2.92;;;10.00;99.90;;;;;;5092308;28;20025;-69
2023/12/13 07:34:59;;;;;;;9.10;2.50;;;10.00;99.90;;;;;;5091294;28;20094;-70
2023/12/13 07:37:24;;;;;;;11.35;3.33;;;10.00;99.90;;;;;;5092226;28;20037;-70
2023/12/13 07:39:50;;;;;;;8.35;2.53;;;10.00;99.90;;;;;;5092263;28;20024;-70
2023/12/13 07:42:16;;;;;;;9.07;2.70;;;10.00;99.90;;;;;;5092071;28;20048;-71
2023/12/13 07:44:42;;;;;;;8.27;2.85;;;10.00;99.90;;;;;;5092129;28;20021;-70
2023/12/13 07:47:08;;;;;;;8.70;2.95;;;10.00;99.90;;;;;;5074513;28;20042;-71
2023/12/13 07:49:33;;;;;;;8.50;3.22;;;10.00;99.90;;;;;;5091165;28;20511;-71
2023/12/13 07:52:09;;;;;;;9.40;2.88;;;10.00;99.90;;;;;;5091076;28;20036;-70
2023/12/13 07:55:11;;;;;;;13.43;2.90;;;10.10;99.90;;;;;;5092021;28;20033;-70
2023/12/13 07:57:36;;;;;;;8.43;2.58;;;10.00;99.90;;;;;;5092090;28;20431;-69
2023/12/13 08:00:04;;;;;;;10.18;3.15;;;10.00;99.90;;;;;;5074085;28;20047;-69
2023/12/13 08:02:31;;;;;;;9.25;3.22;;;10.00;99.90;;;;;;5091992;28;20040;-71
2023/12/13 08:04:57;;;;;;;8.10;3.05;;;10.00;99.90;;;;;;5091920;28;20028;-70
2023/12/13 08:07:22;;;;;;;8.60;2.95;;;10.00;99.90;;;;;;5090849;28;20033;-71
2023/12/13 08:09:49;;;;;;;13.45;4.07;;;10.00;99.90;;;;;;5091360;28;20028;-71
2023/12/13 08:12:15;;;;;;;6.18;3.25;;;10.00;99.90;;;;;;5094561;28;20032;-70
2023/12/13 08:14:41;;;;;;;9.63;3.38;;;10.10;99.90;;;;;;5094737;28;20174;-71
2023/12/13 08:17:08;;;;;;;7.63;3.20;;;10.00;99.90;;;;;;5094717;28;20020;-71
2023/12/13 08:19:35;;;;;;;8.55;3.45;;;10.00;99.90;;;;;;5094687;28;20028;-71
2023/12/13 08:22:01;;;;;;;8.98;3.45;;;10.00;99.90;;;;;;5094647;28;20031;-71
2023/12/13 08:24:26;;;;;;;11.90;3.70;;;10.00;99.90;;;;;;5094491;28;20029;-71
2023/12/13 08:26:52;;;;;;;10.63;3.20;;;10.00;99.90;;;;;;5095399;28;20066;-71
2023/12/13 08:29:17;;;;;;;8.80;3.22;;;10.00;99.90;;;;;;5095166;28;20050;-70
2023/12/13 08:31:43;;;;;;;8.52;3.47;;;10.00;99.90;;;;;;5094392;28;20032;-68
2023/12/13 08:34:08;;;;;;;10.00;3.58;;;10.00;99.90;;;;;;5094329;28;20033;-71
2023/12/13 08:36:34;;;;;;;12.20;3.95;;;10.00;99.90;;;;;;5094551;28;20074;-69
2023/12/13 08:39:00;;;;;;;8.32;4.07;;;10.00;99.90;;;;;;5094772;28;20031;-71
2023/12/13 08:41:27;;;;;;;11.85;3.92;;;10.00;99.90;;;;;;5094947;28;20051;-69
2023/12/13 08:43:53;;;;;;;8.77;3.72;;;10.00;99.90;;;;;;5095370;28;20042;-70
2023/12/13 08:46:19;;;;;;;10.52;4.30;;;10.00;99.90;;;;;;5093895;28;20033;-68
2023/12/13 08:48:45;;;;;;;8.82;3.28;;;10.00;99.90;;;;;;5094776;28;20032;-68
2023/12/13 08:51:11;;;;;;;9.65;4.00;;;10.00;99.90;;;;;;5094822;28;20021;-69
2023/12/13 08:53:36;;;;;;;12.95;3.92;;;10.00;99.90;;;;;;5093685;28;20109;-69
2023/12/13 08:56:02;;;;;;;10.30;3.72;;;10.00;99.90;;;;;;5094711;28;20388;-69
2023/12/13 08:58:28;;;;;;;14.32;3.88;;;10.00;99.90;;;;;;5094674;28;20114;-70
2023/12/13 09:00:53;;;;;;;15.95;4.00;;;10.00;99.90;;;;;;5093442;28;20029;-70
2023/12/13 09:03:19;;;;;;;6.47;3.70;;;10.00;99.90;;;;;;5094001;28;20028;-70
2023/12/13 09:05:45;;;;;;;11.77;3.97;;;10.00;99.90;;;;;;5093538;28;20037;-70
2023/12/13 09:08:10;;;;;;;9.60;3.47;;;10.10;99.90;;;;;;5094310;28;20451;-67
2023/12/13 09:10:36;;;;;;;9.30;3.80;;;10.00;99.90;;;;;;5097689;28;20028;-66
2023/12/13 09:13:02;;;;;;;9.30;3.95;;;10.10;99.90;;;;;;5113309;28;20040;-67
2023/12/13 09:15:28;;;;;;;12.18;4.40;;;10.10;99.90;;;;;;5114078;28;20505;-68
2023/12/13 09:17:54;;;;;;;11.77;4.05;;;10.10;99.90;;;;;;5112303;28;20080;-68
2023/12/13 09:20:19;;;;;;;10.52;4.30;;;10.20;99.90;;;;;;5114626;28;20024;-69
2023/12/13 09:22:45;;;;;;;12.25;3.97;;;10.20;99.90;;;;;;5114592;28;20036;-68
2023/12/13 09:25:17;;;;;;;10.23;3.78;;;10.20;99.90;;;;;;5114651;28;20032;-68
2023/12/13 09:27:49;;;;;;;11.10;3.83;;;10.20;99.90;;;;;;5113762;28;20088;-68
2023/12/13 09:30:14;;;;;;;8.88;3.40;;;10.20;99.90;;;;;;5114526;28;20265;-68
2023/12/13 09:32:40;;;;;;;12.05;4.30;;;10.20;99.90;;;;;;5114404;28;20020;-68
2023/12/13 09:35:06;;;;;;;10.68;3.95;;;10.20;99.90;;;;;;5114366;28;20027;-68
2023/12/13 09:37:35;;;;;;;10.73;4.47;;;10.20;99.90;;;;;;5114397;28;20087;-68
2023/12/13 09:40:01;;;;;;;21.60;9.60;;;10.20;99.90;;;;;;5114443;28;20028;-70
2023/12/13 09:42:27;;;;;;;24.17;11.77;;;10.20;99.90;;;;;;5114069;28;20063;-69
2023/12/13 09:45:04;;;;;;;15.75;7.90;;;10.30;99.90;;;;;;5114333;28;20024;-68
2023/12/13 09:47:32;;;;;;;11.80;4.30;;;10.30;99.90;;;;;;5113145;28;20020;-67
2023/12/13 09:49:57;;;;;;;6.78;3.67;;;10.30;99.90;;;;;;5114295;28;20124;-69
2023/12/13 09:52:27;;;;;;;9.27;4.20;;;10.30;99.90;;;;;;5114141;28;20032;-68
2023/12/13 09:54:53;;;;;;;11.00;4.78;;;10.40;99.90;;;;;;5113091;28;20035;-68
2023/12/13 09:57:19;;;;;;;9.27;3.80;;;10.40;99.90;;;;;;5113042;28;20032;-66
2023/12/13 09:59:46;;;;;;;10.98;3.60;;;10.50;99.90;;;;;;5112879;28;20035;-66
2023/12/13 10:02:14;;;;;;;8.30;3.92;;;10.50;99.90;;;;;;5096383;28;20050;-66
2023/12/13 10:04:40;;;;;;;7.72;4.07;;;10.60;99.90;;;;;;5112743;28;20039;-66
2023/12/13 10:07:07;;;;;;;11.25;4.35;;;10.70;99.90;;;;;;5113875;28;20039;-65
2023/12/13 10:09:34;;;;;;;9.68;4.32;;;10.70;99.90;;;;;;5113863;28;20066;-67
2023/12/13 10:12:00;;;;;;;9.43;4.72;;;10.80;99.90;;;;;;5112907;28;20085;-67
2023/12/13 10:14:25;;;;;;;10.25;4.40;;;10.90;99.90;;;;;;5113541;28;20028;-67
2023/12/13 10:16:52;;;;;;;11.00;4.50;;;10.90;99.90;;;;;;5112644;28;20024;-67
2023/12/13 10:19:36;;;;;;;17.60;5.20;;;10.90;99.90;;;;;;5113575;28;20057;-66
2023/12/13 10:22:09;;;;;;;12.20;4.35;;;10.90;99.90;;;;;;5113505;28;20024;-66
2023/12/13 10:24:39;;;;;;;12.25;4.80;;;11.00;99.90;;;;;;5113441;28;20024;-66
2023/12/13 10:27:07;;;;;;;13.45;4.32;;;11.00;99.90;;;;;;5113396;28;20028;-68
2023/12/13 10:29:33;;;;;;;10.63;4.90;;;11.00;99.90;;;;;;5113375;28;20513;-65
2023/12/13 10:31:59;;;;;;;12.45;5.18;;;11.10;99.90;;;;;;5113344;28;20020;-66
2023/12/13 10:34:25;;;;;;;10.63;5.53;;;11.20;99.90;;;;;;5111796;28;20035;-66
2023/12/13 10:37:39;;;;;;;14.90;5.20;;;11.20;99.90;;;;;;5112633;28;20024;-66
2023/12/13 10:39:59;;;;;;;13.15;5.68;;;11.30;99.90;;;;;;5110917;28;20028;-63
2023/12/13 10:42:25;;;;;;;12.40;5.80;;;11.30;99.90;;;;;;5113071;28;20052;-65
2023/12/13 10:44:52;;;;;;;11.95;5.15;;;11.30;99.90;;;;;;5113185;28;20031;-65
2023/12/13 10:47:25;;;;;;;10.77;4.85;;;11.30;99.90;;;;;;5111925;28;20377;-67
2023/12/13 10:49:58;;;;;;;14.25;5.20;;;11.20;99.90;;;;;;5113175;28;20016;-64
2023/12/13 10:52:26;;;;;;;10.70;5.13;;;11.20;99.90;;;;;;5113052;28;20046;-63
2023/12/13 10:54:52;;;;;;;9.32;4.80;;;11.10;99.90;;;;;;5113026;28;20050;-64
2023/12/13 10:57:18;;;;;;;13.05;5.38;;;11.10;99.90;;;;;;5112913;28;20028;-65
2023/12/13 10:59:45;;;;;;;11.45;5.43;;;11.10;99.90;;;;;;5112748;28;20035;-63
2023/12/13 11:02:15;;;;;;;11.25;5.53;;;11.00;99.90;;;;;;5112887;28;20012;-63
2023/12/13 11:04:45;;;;;;;14.32;5.82;;;11.00;99.90;;;;;;5112838;28;20044;-63
2023/12/13 11:07:11;;;;;;;10.63;5.20;;;11.00;99.90;;;;;;5112755;28;20032;-64
2023/12/13 11:09:52;;;;;;;12.82;5.32;;;10.90;99.90;;;;;;5112774;28;20020;-63
2023/12/13 11:12:20;;;;;;;11.10;5.07;;;10.90;99.90;;;;;;5112730;28;20032;-64
2023/12/13 11:14:52;;;;;;;13.18;5.25;;;10.90;99.90;;;;;;5112803;28;20091;-64
2023/12/13 11:17:19;;;;;;;14.95;5.15;;;10.90;99.90;;;;;;5112644;28;20028;-64
2023/12/13 11:19:46;;;;;;;10.90;5.03;;;10.90;99.90;;;;;;5112625;28;20066;-63
2023/12/13 11:22:15;;;;;;;10.43;5.22;;;10.90;99.90;;;;;;5112635;28;20107;-64
2023/12/13 11:24:41;;;;;;;10.05;4.22;;;10.90;99.90;;;;;;5112414;28;20024;-64
2023/12/13 11:27:12;;;;;;;11.73;4.63;;;10.90;99.90;;;;;;5112542;28;20040;-64
2023/12/13 11:29:44;;;;;;;12.93;5.17;;;11.00;99.90;;;;;;5112427;28;20057;-64
2023/12/13 11:32:10;;;;;;;11.40;4.75;;;11.00;99.90;;;;;;5112531;28;20361;-63
2023/12/13 11:34:42;;;;;;;10.80;4.38;;;11.00;99.90;;;;;;5112399;28;20046;-63
2023/12/13 11:37:10;;;;;;;9.32;4.47;;;11.00;99.90;;;;;;5112479;28;20023;-64
2023/12/13 11:39:37;;;;;;;11.40;5.18;;;11.00;99.90;;;;;;5112510;28;20020;-63
2023/12/13 11:42:04;;;;;;;13.38;5.20;;;11.00;99.90;;;;;;5112212;28;20036;-63
2023/12/13 11:44:31;;;;;;;6.95;4.15;;;11.00;99.90;;;;;;5114225;28;20077;-63
2023/12/13 11:46:59;;;;;;;9.98;4.47;;;11.00;99.90;;;;;;5116570;28;20024;-63
2023/12/13 11:49:26;;;;;;;8.98;4.00;;;11.00;99.90;;;;;;5116509;28;20028;-63
2023/12/13 11:51:58;;;;;;;11.52;4.50;;;11.00;99.90;;;;;;5116333;28;20035;-63
2023/12/13 11:54:23;;;;;;;;;;;11.00;99.90;;;;;;5116808;28;20024;-64
2023/12/13 11:56:50;;;;;;;10.68;4.93;;;11.00;99.90;;;;;;5116353;28;19926;-63
2023/12/13 11:59:16;;;;;;;6.63;4.03;;;11.00;99.90;;;;;;5116108;28;20071;-64
2023/12/13 12:01:42;;;;;;;10.43;4.43;;;11.10;99.90;;;;;;5116323;28;20042;-63
2023/12/13 12:04:08;;;;;;;8.00;4.40;;;11.10;99.90;;;;;;5116266;28;20036;-64
2023/12/13 12:06:34;;;;;;;10.55;4.95;;;11.10;99.90;;;;;;5116219;28;20024;-62
2023/12/13 12:09:01;;;;;;;10.10;4.80;;;11.10;99.90;;;;;;5116109;28;20036;-63
2023/12/13 12:11:27;;;;;;;10.10;4.63;;;11.10;99.90;;;;;;5116087;28;20032;-62
2023/12/13 12:13:55;;;;;;;14.32;4.68;;;11.00;99.90;;;;;;5116012;28;20076;-62
2023/12/13 12:16:21;;;;;;;15.20;5.07;;;11.00;99.90;;;;;;5116109;28;20497;-64
2023/12/13 12:18:47;;;;;;;9.60;4.38;;;11.00;99.90;;;;;;5115952;28;20027;-62
2023/12/13 12:21:13;;;;;;;11.65;4.90;;;11.00;99.90;;;;;;5114905;28;20107;-63
2023/12/13 12:23:40;;;;;;;10.88;4.82;;;10.90;99.90;;;;;;5115895;28;20043;-63
2023/12/13 12:26:11;;;;;;;11.73;4.95;;;10.90;99.90;;;;;;5115911;28;20020;-64
2023/12/13 12:28:41;;;;;;;10.95;5.20;;;10.90;99.90;;;;;;5115906;28;20036;-62
2023/12/13 12:31:09;;;;;;;11.45;5.32;;;10.90;99.90;;;;;;5114415;28;20031;-63
2023/12/13 12:33:36;;;;;;;12.35;5.32;;;11.00;99.90;;;;;;5115497;28;20100;-62
2023/12/13 12:36:01;;;;;;;10.02;5.03;;;11.00;99.90;;;;;;5115607;28;20021;-61
2023/12/13 12:38:27;;;;;;;12.90;5.38;;;11.00;99.90;;;;;;5115652;28;20031;-62
2023/12/13 12:40:53;;;;;;;12.63;6.38;;;11.00;99.90;;;;;;5115265;28;20021;-63
2023/12/13 12:43:20;;;;;;;10.82;4.85;;;11.00;99.90;;;;;;5115499;28;20036;-63
2023/12/13 12:45:47;;;;;;;12.38;5.57;;;11.00;99.90;;;;;;5114294;28;20028;-63